Flight Track Log - Related Links

Times and Time Zones

All times are in EDT time to prevent confusion due to time zone crossing. See the CPZ5714 flight status page for this flight to view local times or setup timezone preferences in your user account.

Time Position Orientation Groundspeed Altitude Reporting Facility
EDT Latitude Longitude Course Direction KTS MPH feet Rate Location/Type
Sat 09:06:46 PM 44.8625 -93.1122 67° East 202 232 3,100  Level Minneapolis Center
Sat 09:07:48 PM 44.9064 -93.0631 38° Northeast 241 277 5,100 2,098 Climbing Minneapolis Center
Sat 09:08:00 PM 45.0420 -92.6115 68° East  Level FlightAware Approximate
Sat 09:08:49 PM 44.9764 -93.0544 North 255 293 7,400  Level Minneapolis Center
Sat 09:09:00 PM 45.0852 -92.4594 70° East  Level FlightAware Approximate
Sat 09:09:51 PM 45.0450 -93.0064 26° Northeast 295 339 9,500  Level Minneapolis Center
Sat 09:10:00 PM 45.1199 -92.3038 70° East  Level FlightAware Approximate
Sat 09:10:52 PM 45.1044 -92.9044 50° Northeast 338 389 10,600  Level Minneapolis Center
Sat 09:11:00 PM 45.1582 -92.1506 70° East  Level FlightAware Approximate
Sat 09:11:54 PM 45.1719 -92.7889 50° Northeast 379 436 12,500  Level Minneapolis Center
Sat 09:12:00 PM 45.2044 -92.0019 67° East  Level FlightAware Approximate
Sat 09:12:55 PM 45.2514 -92.6464 52° Northeast 387 445 14,800  Level Minneapolis Center
Sat 09:13:57 PM 45.3242 -92.5353 47° Northeast 386 444 16,700 1,756 Climbing Minneapolis Center
Sat 09:14:58 PM 45.4003 -92.4286 45° Northeast 385 443 18,400 1,512 Climbing Minneapolis Center
Sat 09:16:00 PM 45.4772 -92.3189 45° Northeast 390 449 19,800 1,220 Climbing Minneapolis Center
Sat 09:17:01 PM 45.5589 -92.2108 43° Northeast 398 458 20,900 1,024 Climbing Minneapolis Center
Sat 09:18:03 PM 45.6422 -92.0986 43° Northeast 408 470 21,900 976 Climbing Minneapolis Center
Sat 09:19:04 PM 45.7319 -91.9889 40° Northeast 421 484 22,900 829 Climbing Minneapolis Center
Sat 09:20:06 PM 45.8264 -91.8778 39° Northeast 433 498 23,600 629 Climbing Minneapolis Center
Sat 09:21:08 PM 45.9439 -91.7356 40° Northeast 455 524 24,200 683 Climbing Minneapolis Center
Sat 09:22:09 PM 46.0214 -91.5831 54° Northeast 478 550 25,000 683 Climbing Minneapolis Center
Sat 09:23:11 PM 46.0183 -91.4003 91° East 468 539 25,600 533 Climbing Minneapolis Center
Sat 09:24:24 PM 45.9914 -91.2183 102° East 466 536 26,200 667 Climbing Minneapolis Center
Sat 09:25:26 PM 45.9614 -91.0067 101° East 456 525 27,100 1,171 Climbing Minneapolis Center
Sat 09:26:27 PM 45.9367 -90.8322 101° East 448 516 28,600 1,415 Climbing Minneapolis Center
Sat 09:27:29 PM 45.9106 -90.6597 102° East 445 512 30,000 1,073 Climbing Minneapolis Center
Sat 09:28:30 PM 45.8908 -90.4819 99° East 453 521 30,800 1,268 Climbing Minneapolis Center
Sat 09:29:32 PM 45.8867 -90.2681 92° East 450 518 32,600 1,366 Climbing Minneapolis Center
Sat 09:30:33 PM 45.8833 -90.0908 91° East 447 514 33,600 1,082 Climbing Minneapolis Center
Sat 09:31:34 PM 45.8814 -89.9133 91° East 447 514 34,800 683 Climbing Minneapolis Center
Sat 09:32:36 PM 45.8600 -89.7458 100° East 430 495 35,000 98 Climbing Minneapolis Center
Sat 09:33:37 PM 45.8325 -89.5831 104° East 433 498 35,000  Level Minneapolis Center
Sat 09:34:38 PM 45.8056 -89.4181 103° East 430 495 35,000  Level Minneapolis Center
Sat 09:35:40 PM 45.7772 -89.2536 104° East 427 491 35,000  Level Minneapolis Center
Sat 09:36:41 PM 45.7433 -89.0614 104° East 429 494 35,000  Level Minneapolis Center
Sat 09:37:42 PM 45.7206 -88.9242 103° East 430 495 35,000  Level Minneapolis Center
Sat 09:38:43 PM 45.6864 -88.7250 104° East 430 495 35,000  Level Minneapolis Center
Sat 09:39:57 PM 45.6517 -88.5300 104° East 425 489 35,000  Level Minneapolis Center
Sat 09:40:58 PM 45.6231 -88.3689 104° East 422 486 35,000  Level Minneapolis Center
Sat 09:41:59 PM 45.5936 -88.2067 104° East 422 486 35,000 49 Level Minneapolis Center
Sat 09:43:01 PM 45.5622 -88.0375 105° East 429 494 35,100 439 Climbing Minneapolis Center
Sat 09:44:02 PM 45.5325 -87.8747 105° East 426 490 35,900 738 Climbing Minneapolis Center
Sat 09:45:03 PM 45.5017 -87.7094 105° East 430 495 36,600 541 Climbing Minneapolis Center
Sat 09:46:04 PM 45.4711 -87.5469 105° East 427 491 37,000 195 Climbing Minneapolis Center
Sat 09:47:06 PM 45.4406 -87.3842 105° East 428 493 37,000  Level Minneapolis Center
Sat 09:48:07 PM 45.4033 -87.1894 105° East 426 490 37,000  Level Minneapolis Center
Sat 09:49:08 PM 45.3711 -87.0222 105° East 439 505 37,000  Level Minneapolis Center
Sat 09:50:09 PM 45.3383 -86.8533 105° East 442 509 37,000  Level Minneapolis Center
Sat 09:51:10 PM 45.3053 -86.6858 106° East 441 507 37,000  Level Minneapolis Center
Sat 09:52:12 PM 45.2719 -86.5169 106° East 444 511 37,000  Level Minneapolis Center
Sat 09:53:13 PM 45.2378 -86.3456 106° East 448 516 37,000  Level Minneapolis Center
Sat 09:54:14 PM 45.2042 -86.1747 106° East 449 517 37,000  Level Minneapolis Center
Sat 09:55:15 PM 45.1700 -86.0050 106° East 444 511 37,000  Level Minneapolis Center
Sat 09:56:16 PM 45.1339 -85.8328 106° East 447 514 37,000  Level Minneapolis Center
Sat 09:57:17 PM 45.0983 -85.6656 107° East 446 513 37,000  Level Minneapolis Center
Sat 09:58:18 PM 45.0656 -85.4978 105° East 442 509 37,000  Level Minneapolis Center
Sat 09:59:20 PM 45.0303 -85.3297 106° East 444 511 37,000  Level Minneapolis Center
Sat 10:00:21 PM 44.9953 -85.1606 106° East 447 514 37,000  Level Minneapolis Center
Sat 10:01:23 PM 44.9592 -84.9919 107° East 448 516 37,000  Level Minneapolis Center
Sat 10:02:24 PM 44.9167 -84.7900 106° East 448 516 37,000  Level Minneapolis Center
Sat 10:03:25 PM 44.8792 -84.6208 107° East 451 519 37,000  Level Minneapolis Center
Sat 10:04:26 PM 44.8419 -84.4536 107° East 450 518 37,000  Level Minneapolis Center
Sat 10:05:27 PM 44.8058 -84.2878 107° East 447 514 37,000  Level Minneapolis Center
Sat 10:06:28 PM 44.7692 -84.1219 107° East 446 513 37,000  Level Minneapolis Center
Sat 10:07:29 PM 44.7328 -83.9544 107° East 447 514 37,000  Level Minneapolis Center
Sat 10:08:31 PM 44.6953 -83.7903 108° East 445 512 37,000  Level Minneapolis Center
Sat 10:09:32 PM 44.6581 -83.6281 108° East 442 509 37,000  Level Minneapolis Center
Sat 10:10:33 PM 44.6208 -83.4653 108° East 440 506 37,000  Level Minneapolis Center
Sat 10:11:34 PM 44.5839 -83.3017 108° East 440 506 37,000  Level Minneapolis Center
Sat 10:12:35 PM 44.5456 -83.1394 108° East 440 506 37,000  Level Minneapolis Center
Sat 10:13:36 PM 44.5014 -82.9456 108° East 438 504 37,000  Level Minneapolis Center
Sat 10:14:37 PM 44.4625 -82.7833 109° East 439 505 37,000  Level Minneapolis Center
Sat 10:15:39 PM 44.4239 -82.6228 109° East 438 504 37,000  Level Minneapolis Center
Sat 10:16:34 PM 44.3667 -82.4500 115° Southeast 430 495 37,000  Level Toronto Center
Sat 10:17:34 PM 44.3333 -82.2833 106° East 430 495 37,000  Level Toronto Center
Sat 10:18:34 PM 44.2833 -82.1500 118° Southeast 440 506 37,000  Level Toronto Center
Sat 10:19:34 PM 44.2500 -81.9833 106° East 430 495 37,000  Level Toronto Center
Sat 10:20:34 PM 44.2167 -81.8167 106° East 430 495 37,000  Level Toronto Center
Sat 10:21:34 PM 44.1833 -81.6500 106° East 430 495 37,000  Level Toronto Center
Sat 10:22:34 PM 44.1333 -81.5167 118° Southeast 430 495 37,000  Level Toronto Center
Sat 10:23:34 PM 44.1000 -81.3500 106° East 430 495 37,000  Level Toronto Center
Sat 10:24:34 PM 44.0500 -81.1833 113° Southeast 430 495 37,000  Level Toronto Center
Sat 10:25:34 PM 44.0167 -81.0500 109° East 430 495 37,000  Level Toronto Center
Sat 10:26:34 PM 43.9667 -80.8667 111° Southeast 430 495 37,000  Level Toronto Center
Sat 10:27:34 PM 43.9500 -80.7167 99° East 430 495 37,000  Level Toronto Center
Sat 10:28:34 PM 43.9000 -80.5667 115° Southeast 430 495 37,000  Level Toronto Center
Sat 10:29:34 PM 43.8667 -80.4167 107° East 430 495 37,000  Level Toronto Center
Sat 10:30:34 PM 43.8167 -80.2500 113° Southeast 430 495 37,000  Level Toronto Center
Sat 10:31:34 PM 43.7833 -80.1000 107° East 430 495 37,000  Level Toronto Center
Sat 10:32:34 PM 43.7333 -79.9333 112° Southeast 430 495 37,000  Level Toronto Center
Sat 10:33:34 PM 43.7000 -79.8000 109° East 430 495 37,000  Level Toronto Center
Sat 10:34:34 PM 43.6500 -79.6167 111° Southeast 450 518 37,000  Level Toronto Center
Sat 10:35:34 PM 43.6333 -79.4500 98° East 450 518 37,000  Level Toronto Center
Sat 10:36:34 PM 43.6000 -79.2833 105° East 430 495 37,000  Level Toronto Center
Sat 10:37:34 PM 43.5833 -79.1333 99° East 440 506 37,000  Level Toronto Center
Sat 10:38:34 PM 43.5667 -78.9500 97° East 440 506 37,000  Level Toronto Center
Sat 10:39:34 PM 43.5500 -78.7833 98° East 440 506 37,000  Level Toronto Center
Sat 10:40:34 PM 43.5167 -78.6167 105° East 440 506 37,000  Level Toronto Center
Sat 10:41:34 PM 43.4833 -78.4667 107° East 440 506 37,000 -55 Level Toronto Center
Sat 10:42:23 PM 43.4867 -78.3400 88° East 442 509 36,900 -495 Descending Cleveland Center
Sat 10:43:23 PM 43.4625 -78.1750 101° East 442 509 36,100 -850 Descending Cleveland Center
Sat 10:44:23 PM 43.4361 -78.0075 102° East 447 514 35,200 -900 Descending Cleveland Center
Sat 10:45:23 PM 43.4136 -77.8456 101° East 447 514 34,300 -950 Descending Cleveland Center
Sat 10:46:23 PM 43.3886 -77.6750 101° East 447 514 33,300 -974 Descending Cleveland Center
Sat 10:48:34 PM 43.3167 -77.3000 105° East 450 518 31,200 -974 Descending Toronto Center
Sat 10:49:34 PM 43.3000 -77.1167 97° East 450 518 30,200 -950 Descending Toronto Center
Sat 10:50:34 PM 43.2667 -76.9500 105° East 450 518 29,300 -600 Descending Toronto Center
Sat 10:51:34 PM 43.2500 -76.7667 97° East 450 518 29,000 -150 Descending Toronto Center
Sat 10:52:34 PM 43.2167 -76.6167 107° East 450 518 29,000  Level Toronto Center
Sat 10:53:34 PM 43.2000 -76.4500 98° East 450 518 29,000 -50 Level Toronto Center
Sat 10:54:34 PM 43.1667 -76.2667 104° East 450 518 28,900  Descending Toronto Center
Sat 10:55:34 PM 43.1500 -76.1167 99° East 440 506 29,000 50 Climbing Toronto Center
Sat 10:56:34 PM 43.1167 -75.9500 105° East 440 506 29,000  Level Toronto Center
Sat 10:57:34 PM 43.0833 -75.8000 107° East 440 506 29,000 -400 Level Toronto Center
Sat 10:58:34 PM 43.0667 -75.6167 97° East 440 506 28,200 -1,500 Descending Toronto Center
Sat 10:59:34 PM 43.0333 -75.4667 107° East 440 506 26,000 -2,250 Descending Toronto Center
Sat 11:00:34 PM 43.0167 -75.3000 98° East 410 472 23,700 -2,150 Descending Toronto Center
Sat 11:01:34 PM 42.9833 -75.1667 109° East 390 449 21,700 -2,000 Descending Toronto Center
Sat 11:02:34 PM 42.9500 -75.0333 109° East 380 437 19,700 -2,000 Descending Toronto Center
Sat 11:03:34 PM 42.9333 -74.9000 100° East 370 426 17,700 -2,050 Descending Toronto Center
Sat 11:04:34 PM 42.9000 -74.7667 109° East 370 426 15,600 -1,650 Descending Toronto Center
Sat 11:05:34 PM 42.8833 -74.6333 100° East 360 414 14,400 -1,822 Descending Toronto Center
Sat 11:06:49 PM 42.8756 -74.5083 95° East 346 398 11,500 -1,836 Descending Boston Center
Sat 11:08:00 PM 42.8351 -74.3247 107° East  Level FlightAware Approximate
Sat 11:09:26 PM 42.8533 -74.2131 107° East 301 346 7,300  Level Boston Center
Sat 11:10:27 PM 42.8469 -74.0939 94° East 290 334 5,500 -1,672 Descending Boston Center
Sat 11:11:28 PM 42.8419 -73.9919 94° East 268 308 3,900 -1,339 Descending Boston Center
Sat 11:12:28 PM 42.8411 -73.8983 91° East 237 273 2,800 -942 Descending Boston Center
Sat 11:13:29 PM 42.8317 -73.8244 100° East 191 220 2,000 -694 Descending Boston Center
Sat 11:14:29 PM 42.7839 -73.8064 164° South 149 171 1,400 -198 Descending Boston Center
Sat 11:15:30 PM 42.7381 -73.8083 182° South 168 193 1,600 197 Climbing Boston Center
Sat 11:16:31 PM 42.7408 -73.7517 86° East 202 232 1,800 197 Climbing Boston Center

Login

Don't have an account? Register now (free) for customized features, flight alerts, and more!